Time;durP1;ratioP1;P1;durP2;ratioP2;P2;SDS_P1;SDS_P2;PMS_P1;PMS_P2;Temp;Humidity;BMP_temperature;BMP_pressure;BME280_temperature;BME280_humidity;BME280_pressure;Samples;Min_cycle;Max_cycle;Signal;HPM_P1;HPM_P2
2023/06/28 00:00:09;;;;;;;4.55;2.00;;;;;;;20.04;49.56;100546.53;4955795;28;20040;-73
2023/06/28 00:02:36;;;;;;;3.42;1.90;;;;;;;19.98;49.70;100539.00;4958405;28;20138;-73
2023/06/28 00:05:08;;;;;;;2.55;1.67;;;;;;;20.06;50.20;100547.25;4953380;28;20102;-73
2023/06/28 00:07:37;;;;;;;4.72;1.70;;;;;;;19.99;50.03;100536.13;4938679;28;20054;-72
2023/06/28 00:10:05;;;;;;;4.03;1.55;;;;;;;20.02;50.57;100543.97;4955580;28;20122;-73
2023/06/28 00:12:36;;;;;;;3.97;1.60;;;;;;;19.92;50.50;100551.09;4953510;28;20142;-73
2023/06/28 00:15:03;;;;;;;2.03;1.50;;;;;;;19.82;50.65;100539.41;4951824;28;20050;-73
2023/06/28 00:17:30;;;;;;;4.30;1.70;;;;;;;19.85;50.84;100547.19;4936362;28;20114;-72
2023/06/28 00:19:58;;;;;;;2.47;1.85;;;;;;;19.82;50.95;100540.28;4957530;28;20047;-71
2023/06/28 00:22:30;;;;;;;4.55;1.73;;;;;;;19.90;50.90;100551.22;4938181;29;20509;-73
2023/06/28 00:25:04;;;;;;;4.00;1.90;;;;;;;20.07;51.88;100554.34;4954823;28;20122;-74
2023/06/28 00:27:32;;;;;;;4.13;1.70;;;;;;;20.09;50.99;100558.59;4935280;29;20072;-72
2023/06/28 00:29:59;;;;;;;4.40;1.67;;;;;;;20.03;51.08;100550.19;4923957;28;20058;-72
2023/06/28 00:32:27;;;;;;;4.25;1.70;;;;;;;19.98;51.47;100565.88;4956252;28;20434;-72
2023/06/28 00:34:55;;;;;;;3.97;1.65;;;;;;;19.88;51.72;100555.00;4938353;29;20523;-72
2023/06/28 00:37:23;;;;;;;3.75;1.88;;;;;;;19.83;52.29;100562.63;4938869;29;20047;-72
2023/06/28 00:39:50;;;;;;;7.93;2.15;;;;;;;19.85;52.89;100571.38;4955376;28;20472;-71
2023/06/28 00:42:19;;;;;;;2.95;1.60;;;;;;;19.80;52.92;100562.88;4937208;28;20055;-72
2023/06/28 00:44:48;;;;;;;3.45;1.55;;;;;;;19.76;53.23;100575.69;4938358;29;20099;-72
2023/06/28 00:47:15;;;;;;;3.77;1.67;;;;;;;19.71;53.42;100561.78;4953763;28;20055;-72
2023/06/28 00:49:43;;;;;;;4.55;2.00;;;;;;;19.73;53.55;100567.03;4943656;28;21421;-73
2023/06/28 00:52:11;;;;;;;4.10;1.88;;;;;;;19.71;53.51;100568.97;4906613;29;20047;-72
2023/06/28 00:54:38;;;;;;;4.20;1.90;;;;;;;19.71;53.58;100569.84;4952737;28;20059;-71
2023/06/28 00:57:05;;;;;;;2.80;1.60;;;;;;;19.70;53.89;100569.97;4955130;28;20525;-74
2023/06/28 00:59:31;;;;;;;7.43;2.10;;;;;;;19.60;54.34;100551.94;4938481;28;20058;-72
2023/06/28 01:01:58;;;;;;;3.25;1.83;;;;;;;19.73;53.82;100577.78;4937769;29;20047;-72
2023/06/28 01:04:25;;;;;;;5.05;1.85;;;;;;;19.69;53.97;100566.41;4954013;28;20051;-72
2023/06/28 01:06:59;;;;;;;3.85;1.58;;;;;;;19.71;53.99;100575.22;4955409;28;20043;-71
2023/06/28 01:09:29;;;;;;;3.97;1.95;;;;;;;19.67;54.05;100573.78;4923760;28;20074;-71
2023/06/28 01:11:56;;;;;;;2.90;1.63;;;;;;;19.70;54.29;100581.56;4940034;28;20066;-71
2023/06/28 01:14:25;;;;;;;4.03;1.75;;;;;;;19.68;54.21;100571.91;4960137;28;20134;-72
2023/06/28 01:16:55;;;;;;;3.53;1.63;;;;;;;19.58;54.14;100564.63;4941123;29;20046;-72
2023/06/28 01:19:26;;;;;;;2.33;1.50;;;;;;;19.66;54.38;100585.50;4956188;28;20075;-72
2023/06/28 01:22:05;;;;;;;5.70;2.00;;;;;;;19.59;54.41;100571.69;4941102;28;20517;-72
2023/06/28 01:24:32;;;;;;;3.55;1.88;;;;;;;19.65;54.57;100575.72;4953499;28;20142;-71
2023/06/28 01:26:59;;;;;;;3.95;1.90;;;;;;;19.63;54.27;100566.09;4931420;29;20075;-72
2023/06/28 01:29:26;;;;;;;6.03;2.35;;;;;;;19.66;54.45;100582.81;4935779;29;20501;-72
2023/06/28 01:31:54;;;;;;;8.60;2.08;;;;;;;19.69;54.60;100579.00;4938930;29;20054;-72
2023/06/28 01:34:22;;;;;;;2.78;1.70;;;;;;;19.68;54.41;100575.47;4937115;28;20574;-72
2023/06/28 01:36:51;;;;;;;2.22;1.48;;;;;;;19.66;54.22;100572.06;4937190;29;20047;-71
2023/06/28 01:39:19;;;;;;;5.43;1.83;;;;;;;19.67;54.45;100578.31;4934618;28;20055;-71
2023/06/28 01:41:46;;;;;;;5.60;1.85;;;;;;;19.70;54.55;100584.25;4949620;28;20122;-72
2023/06/28 01:44:14;;;;;;;3.22;1.40;;;;;;;19.63;54.66;100566.09;4952739;28;20052;-72
2023/06/28 01:46:42;;;;;;;4.00;1.88;;;;;;;19.71;54.15;100574.34;4948963;28;20043;-72
2023/06/28 01:49:10;;;;;;;3.25;1.40;;;;;;;19.73;54.37;100564.34;4951655;28;20106;-71
2023/06/28 01:51:39;;;;;;;4.22;1.77;;;;;;;19.76;54.17;100562.25;4932933;29;20055;-72
2023/06/28 01:54:08;;;;;;;3.83;1.58;;;;;;;19.87;54.10;100569.44;4934685;29;20047;-72
2023/06/28 01:56:37;;;;;;;4.68;1.83;;;;;;;19.91;53.64;100571.75;4934689;28;20057;-72
2023/06/28 01:59:04;;;;;;;2.67;1.58;;;;;;;19.88;53.84;100577.38;4957571;28;20063;-71
2023/06/28 02:01:31;;;;;;;3.95;1.55;;;;;;;19.87;54.22;100574.81;4956691;28;20043;-72
2023/06/28 02:03:58;;;;;;;4.80;1.70;;;;;;;19.83;53.68;100573.38;4938369;29;20043;-72
2023/06/28 02:06:26;;;;;;;5.72;1.88;;;;;;;19.85;53.88;100580.31;4954646;28;20075;-71
2023/06/28 02:08:53;;;;;;;6.50;1.90;;;;;;;19.71;53.85;100563.59;4952194;28;20556;-72
2023/06/28 02:11:20;;;;;;;4.00;1.60;;;;;;;19.72;54.03;100576.06;4934434;28;20081;-72
2023/06/28 02:13:48;;;;;;;5.95;1.80;;;;;;;19.63;54.52;100572.31;4955326;28;20044;-72
2023/06/28 02:16:14;;;;;;;5.82;1.73;;;;;;;19.64;54.90;100575.84;4943355;28;20085;-72
2023/06/28 02:18:45;;;;;;;2.28;1.48;;;;;;;19.56;54.90;100577.31;4961022;28;20047;-72
2023/06/28 02:21:11;;;;;;;4.72;1.70;;;;;;;19.53;55.18;100579.41;4960388;28;20047;-71
2023/06/28 02:23:38;;;;;;;3.20;1.73;;;;;;;19.55;55.33;100585.50;4943050;29;20133;-72
2023/06/28 02:26:05;;;;;;;4.43;1.60;;;;;;;19.47;55.72;100571.81;4945227;28;20098;-72
2023/06/28 02:28:32;;;;;;;4.57;1.80;;;;;;;19.57;55.94;100576.34;4943155;28;20213;-72
2023/06/28 02:30:58;;;;;;;4.05;1.60;;;;;;;19.59;55.73;100579.75;4944737;29;20116;-72
2023/06/28 02:33:25;;;;;;;4.97;1.63;;;;;;;19.57;55.44;100562.91;4941306;29;20095;-72
2023/06/28 02:35:53;;;;;;;3.83;1.63;;;;;;;19.60;55.92;100577.94;4968183;28;20054;-72
2023/06/28 02:38:20;;;;;;;4.35;1.95;;;;;;;19.64;56.39;100578.53;4969326;28;20561;-72
2023/06/28 02:40:46;;;;;;;4.35;1.60;;;;;;;19.69;56.20;100579.84;4947017;29;20102;-72
2023/06/28 02:43:13;;;;;;;4.93;2.08;;;;;;;19.68;55.78;100580.84;4947862;28;20085;-72
2023/06/28 02:45:41;;;;;;;4.07;1.75;;;;;;;19.72;56.37;100582.28;4956143;28;20043;-71
2023/06/28 02:48:09;;;;;;;5.03;1.95;;;;;;;19.70;56.27;100581.56;4959977;28;20472;-72
2023/06/28 02:50:36;;;;;;;4.63;1.70;;;;;;;19.59;56.52;100578.91;4958622;28;20051;-72
2023/06/28 02:53:04;;;;;;;6.75;1.90;;;;;;;19.51;57.11;100574.19;4940199;29;20047;-72
2023/06/28 02:55:31;;;;;;;4.00;2.00;;;;;;;19.54;57.70;100589.16;4956205;28;20051;-72
2023/06/28 02:57:57;;;;;;;4.22;1.45;;;;;;;19.50;57.99;100585.03;4924573;28;20532;-72
2023/06/28 03:00:24;;;;;;;3.15;1.55;;;;;;;19.43;58.29;100579.28;4956006;28;20066;-72
2023/06/28 03:02:54;;;;;;;3.65;1.80;;;;;;;19.37;58.82;100574.38;4956096;28;20047;-72
2023/06/28 03:05:22;;;;;;;5.20;1.83;;;;;;;19.39;59.14;100574.25;4955844;28;20066;-72
2023/06/28 03:07:50;;;;;;;6.97;1.73;;;;;;;19.36;59.29;100586.09;4935206;29;20134;-72
2023/06/28 03:10:16;;;;;;;4.50;1.80;;;;;;;19.26;59.71;100566.34;4954745;28;20482;-72
2023/06/28 03:12:43;;;;;;;3.42;1.50;;;;;;;19.21;59.61;100569.38;4955250;28;20074;-73
2023/06/28 03:15:10;;;;;;;3.55;1.80;;;;;;;19.21;59.79;100581.97;4941098;29;20043;-72
2023/06/28 03:17:37;;;;;;;5.78;1.70;;;;;;;19.20;60.22;100581.09;4950325;28;20052;-72
2023/06/28 03:20:05;;;;;;;2.25;1.45;;;;;;;19.27;60.73;100590.38;4954836;28;20079;-72
2023/06/28 03:22:32;;;;;;;4.72;1.63;;;;;;;19.28;60.57;100581.34;4939136;29;20051;-72
2023/06/28 03:25:02;;;;;;;4.72;1.92;;;;;;;19.38;60.40;100589.50;4952738;28;20047;-72
2023/06/28 03:27:29;;;;;;;4.13;1.63;;;;;;;19.21;60.06;100565.84;4951481;28;20151;-72
2023/06/28 03:29:55;;;;;;;2.70;1.48;;;;;;;19.35;59.49;100594.31;4939938;29;20118;-72
2023/06/28 03:32:22;;;;;;;4.28;1.60;;;;;;;19.31;59.75;100588.31;4934801;28;20055;-72
2023/06/28 03:34:49;;;;;;;4.50;1.88;;;;;;;19.28;60.53;100589.41;4939928;29;20043;-72
2023/06/28 03:37:17;;;;;;;5.75;2.00;;;;;;;19.29;60.40;100587.59;4956075;28;20067;-72
2023/06/28 03:39:43;;;;;;;5.35;2.05;;;;;;;19.12;60.49;100564.78;4935835;28;20065;-72
2023/06/28 03:42:10;;;;;;;3.13;1.60;;;;;;;19.22;60.78;100584.53;4954388;28;20043;-72
2023/06/28 03:44:38;;;;;;;5.63;2.15;;;;;;;19.16;60.91;100585.03;4960090;28;20103;-72
2023/06/28 03:47:05;;;;;;;7.20;1.65;;;;;;;19.14;60.71;100586.97;4945791;29;20082;-72
2023/06/28 03:49:33;;;;;;;6.10;1.70;;;;;;;19.16;60.38;100592.22;4956149;28;20051;-72
2023/06/28 03:51:59;;;;;;;3.80;1.75;;;;;;;19.19;60.00;100589.31;4952645;28;20147;-72
2023/06/28 03:54:26;;;;;;;6.07;1.60;;;;;;;19.23;60.16;100594.28;4948626;28;20139;-72
2023/06/28 03:56:53;;;;;;;6.68;2.00;;;;;;;19.24;59.57;100593.31;4924652;28;20043;-71
2023/06/28 03:59:19;;;;;;;3.60;1.30;;;;;;;19.19;59.17;100590.16;4953415;28;20043;-72
2023/06/28 04:01:49;;;;;;;5.53;1.90;;;;;;;19.17;60.08;100592.13;4950315;28;20075;-72
2023/06/28 04:04:17;;;;;;;4.95;1.77;;;;;;;19.12;59.91;100588.94;4940564;29;20056;-72
2023/06/28 04:06:45;;;;;;;5.82;1.60;;;;;;;19.12;59.93;100599.66;4938454;29;20811;-72
2023/06/28 04:09:15;;;;;;;3.38;1.63;;;;;;;19.06;59.82;100584.03;4926141;28;20800;-72
2023/06/28 04:11:44;;;;;;;2.42;1.38;;;;;;;19.07;59.18;100590.25;4952305;28;20051;-72
2023/06/28 04:14:11;;;;;;;3.08;1.65;;;;;;;19.08;59.89;100579.41;4955599;28;20054;-72
2023/06/28 04:16:39;;;;;;;5.95;1.80;;;;;;;19.09;60.08;100588.31;4937239;29;20054;-72
2023/06/28 04:19:06;;;;;;;4.82;1.77;;;;;;;19.12;60.33;100599.66;4953091;28;20043;-72
2023/06/28 04:21:32;;;;;;;6.30;1.70;;;;;;;19.10;60.61;100595.38;4952752;28;20047;-73
2023/06/28 04:24:00;;;;;;;3.58;1.60;;;;;;;19.10;60.99;100606.13;4955065;28;20598;-73
2023/06/28 04:26:30;;;;;;;5.30;1.50;;;;;;;19.10;61.27;100612.34;4956953;28;20123;-71
2023/06/28 04:28:58;;;;;;;5.95;1.52;;;;;;;19.05;60.83;100601.09;4953173;28;20049;-71
2023/06/28 04:31:27;;;;;;;4.05;1.45;;;;;;;19.04;60.91;100612.84;4953303;28;20053;-72
2023/06/28 04:33:57;;;;;;;3.97;1.63;;;;;;;18.94;60.92;100601.09;4936201;28;20047;-71
2023/06/28 04:36:25;;;;;;;3.88;1.67;;;;;;;18.85;61.31;100591.13;4952826;28;20056;-71
2023/06/28 04:38:54;;;;;;;3.40;1.35;;;;;;;18.92;61.54;100605.75;4953957;29;20065;-71
2023/06/28 04:41:22;;;;;;;2.28;1.52;;;;;;;18.92;61.64;100613.78;4937388;29;20517;-71
2023/06/28 04:43:54;;;;;;;3.63;1.42;;;;;;;18.89;61.86;100614.88;4954282;28;20055;-72
2023/06/28 04:46:26;;;;;;;4.28;1.90;;;;;;;18.86;61.44;100606.25;4951874;28;20054;-72
2023/06/28 04:48:55;;;;;;;4.20;1.80;;;;;;;18.83;61.98;100609.16;4932781;28;20058;-72
2023/06/28 04:51:22;;;;;;;3.85;1.73;;;;;;;18.83;61.92;100603.78;4935396;29;20070;-71
2023/06/28 04:53:49;;;;;;;5.22;1.67;;;;;;;18.85;62.43;100615.25;4945814;28;20422;-72
2023/06/28 04:56:17;;;;;;;4.40;1.40;;;;;;;18.87;62.45;100613.31;4912946;29;20474;-72
2023/06/28 04:58:47;;;;;;;5.03;1.75;;;;;;;18.89;62.74;100600.59;4934171;28;20057;-71
2023/06/28 05:01:17;;;;;;;5.50;1.63;;;;;;;18.84;62.80;100592.94;4938076;29;20061;-72
2023/06/28 05:03:47;;;;;;;5.93;1.70;;;;;;;18.85;63.30;100596.47;4953420;28;20053;-72
2023/06/28 05:06:15;;;;;;;4.70;1.80;;;;;;;18.90;63.06;100602.31;4925692;29;20430;-71
2023/06/28 05:08:42;;;;;;;6.32;1.70;;;;;;;18.90;63.07;100611.22;4932909;29;20047;-71
2023/06/28 05:11:12;;;;;;;6.70;1.80;;;;;;;18.81;63.13;100590.50;4938411;28;20099;-72
2023/06/28 05:13:40;;;;;;;4.63;1.90;;;;;;;18.93;64.08;100610.13;4935991;29;20596;-72
2023/06/28 05:16:07;;;;;;;5.43;1.70;;;;;;;18.96;62.48;100609.03;4935331;29;20107;-72
2023/06/28 05:18:36;;;;;;;4.32;1.70;;;;;;;18.95;63.60;100604.66;4933702;29;20050;-72
2023/06/28 05:21:03;;;;;;;5.18;1.92;;;;;;;18.92;64.17;100603.06;4944430;28;20110;-71
2023/06/28 05:23:30;;;;;;;5.30;1.80;;;;;;;18.98;65.03;100599.91;4953031;28;20051;-71
2023/06/28 05:25:56;;;;;;;4.00;2.10;;;;;;;19.09;62.47;100609.78;4934824;28;20142;-72
2023/06/28 05:28:25;;;;;;;4.35;1.75;;;;;;;19.11;62.51;100611.38;4954847;29;20049;-71
2023/06/28 05:30:52;;;;;;;5.70;2.10;;;;;;;19.09;62.27;100605.28;4959584;28;20058;-72
2023/06/28 05:33:19;;;;;;;4.80;1.95;;;;;;;19.09;63.64;100616.00;4939531;28;20051;-72
2023/06/28 05:35:47;;;;;;;4.60;2.00;;;;;;;19.07;62.76;100611.72;4964995;28;20581;-71
2023/06/28 05:38:17;;;;;;;3.92;1.75;;;;;;;19.08;63.99;100624.19;4955874;28;20057;-71
2023/06/28 05:40:54;;;;;;;3.88;1.55;;;;;;;19.06;63.78;100618.06;4891056;29;20052;-71
2023/06/28 05:43:22;;;;;;;6.68;1.80;;;;;;;19.14;63.28;100619.19;4917267;29;20047;-72
2023/06/28 05:45:50;;;;;;;4.95;2.20;;;;;;;19.15;62.40;100609.31;4930615;29;20059;-72
2023/06/28 05:48:16;;;;;;;4.25;1.73;;;;;;;19.21;63.07;100614.16;4915798;29;20052;-72
2023/06/28 05:50:45;;;;;;;6.65;1.60;;;;;;;19.16;63.38;100621.75;4920099;29;20138;-71
2023/06/28 05:53:13;;;;;;;6.40;1.90;;;;;;;19.10;63.67;100619.53;4931569;29;20083;-71
2023/06/28 05:55:40;;;;;;;4.05;1.80;;;;;;;19.07;64.07;100609.91;4924781;29;20045;-71
2023/06/28 05:58:06;;;;;;;5.43;2.00;;;;;;;19.11;63.35;100614.06;4935511;29;20048;-71
2023/06/28 06:00:34;;;;;;;3.92;1.77;;;;;;;19.12;64.30;100623.81;4913178;29;20044;-72
2023/06/28 06:03:00;;;;;;;3.47;2.03;;;;;;;19.17;63.73;100626.16;4917528;29;20051;-72
2023/06/28 06:05:28;;;;;;;4.18;1.90;;;;;;;19.18;64.59;100623.34;4929658;29;20107;-71
2023/06/28 06:07:55;;;;;;;4.38;1.83;;;;;;;19.24;64.71;100620.16;4917026;29;20135;-72
2023/06/28 06:10:24;;;;;;;6.72;1.90;;;;;;;19.29;64.36;100627.84;4917609;29;20048;-72
2023/06/28 06:12:53;;;;;;;4.15;1.63;;;;;;;19.31;64.50;100631.28;4939318;29;20052;-70
2023/06/28 06:15:19;;;;;;;5.00;1.83;;;;;;;19.28;65.52;100618.94;4937559;29;20091;-71
2023/06/28 06:17:50;;;;;;;7.13;1.85;;;;;;;19.42;66.19;100625.91;4918119;29;20165;-72
2023/06/28 06:20:19;;;;;;;4.32;1.92;;;;;;;19.52;64.10;100616.16;4916813;29;20047;-71
2023/06/28 06:22:46;;;;;;;5.03;2.30;;;;;;;19.61;64.50;100626.16;4918805;29;20047;-71
2023/06/28 06:25:13;;;;;;;6.05;2.50;;;;;;;19.52;66.13;100618.84;4917445;29;20059;-72
2023/06/28 06:27:40;;;;;;;9.48;2.05;;;;;;;19.70;64.56;100627.25;4934075;29;20056;-72
2023/06/28 06:30:10;;;;;;;5.80;2.08;;;;;;;19.79;63.90;100629.19;4930591;29;20123;-72
2023/06/28 06:32:37;;;;;;;7.60;2.30;;;;;;;19.84;62.64;100626.97;4918959;29;20487;-71
2023/06/28 06:35:06;;;;;;;8.15;2.15;;;;;;;19.87;61.84;100625.88;4919338;29;20640;-73
2023/06/28 06:37:34;;;;;;;5.93;2.10;;;;;;;19.89;62.08;100631.97;4916735;29;20044;-71
2023/06/28 06:40:00;;;;;;;7.47;2.38;;;;;;;19.86;63.05;100637.59;4915024;29;20494;-72
2023/06/28 06:42:27;;;;;;;6.78;2.15;;;;;;;19.82;64.05;100628.94;4915531;29;20048;-71
2023/06/28 06:44:54;;;;;;;4.93;1.83;;;;;;;19.72;64.28;100635.19;4914813;29;20101;-71
2023/06/28 06:47:21;;;;;;;7.32;3.10;;;;;;;19.69;64.12;100636.28;4911749;29;20131;-71
2023/06/28 06:49:48;;;;;;;7.72;2.35;;;;;;;19.82;62.41;100637.00;4917680;29;20044;-70
2023/06/28 06:52:14;;;;;;;6.53;2.20;;;;;;;19.92;63.99;100635.28;4936172;28;20124;-72
2023/06/28 06:54:41;;;;;;;5.97;2.42;;;;;;;19.95;62.81;100626.97;4934219;29;20106;-71
2023/06/28 06:57:08;;;;;;;7.28;2.22;;;;;;;20.15;61.37;100636.03;4918290;29;20047;-70
2023/06/28 06:59:36;;;;;;;7.65;2.08;;;;;;;20.15;61.45;100637.88;4918275;29;20055;-71
2023/06/28 07:02:03;;;;;;;5.45;2.28;;;;;;;20.18;62.41;100645.69;4927713;28;20170;-71
2023/06/28 07:04:30;;;;;;;6.97;2.15;;;;;;;20.15;61.99;100643.25;4912110;29;20056;-71
2023/06/28 07:06:58;;;;;;;6.05;2.33;;;;;;;20.25;61.66;100647.75;4934983;29;20044;-71
2023/06/28 07:09:29;;;;;;;5.25;2.40;;;;;;;20.31;60.95;100646.38;4906669;29;20119;-71
2023/06/28 07:11:57;;;;;;;6.30;2.28;;;;;;;20.33;60.48;100657.88;4909221;28;20071;-72
2023/06/28 07:14:25;;;;;;;3.42;1.67;;;;;;;20.28;60.27;100657.41;4952687;28;20058;-72
2023/06/28 07:16:51;;;;;;;5.82;2.10;;;;;;;20.31;60.96;100651.75;4937660;29;20050;-73
2023/06/28 07:19:18;;;;;;;6.05;2.00;;;;;;;20.39;59.28;100652.00;4933209;29;20079;-72
2023/06/28 07:21:45;;;;;;;4.25;1.90;;;;;;;20.61;58.67;100651.06;4934435;29;20039;-72
2023/06/28 07:24:12;;;;;;;5.53;2.05;;;;;;;20.78;58.67;100628.94;4939520;29;20044;-73
2023/06/28 07:26:40;;;;;;;3.53;1.75;;;;;;;20.97;55.59;100633.59;4936601;29;20047;-72
2023/06/28 07:29:06;;;;;;;9.40;2.25;;;;;;;21.05;56.59;100646.41;4940142;29;20517;-71
2023/06/28 07:31:33;;;;;;;5.93;2.10;;;;;;;21.08;55.43;100644.31;4934679;29;20079;-72
2023/06/28 07:34:04;;;;;;;5.18;2.35;;;;;;;21.06;54.34;100642.72;4922394;29;20119;-72
2023/06/28 07:36:32;;;;;;;5.57;2.45;;;;;;;21.12;56.08;100637.63;4942730;29;20047;-71
2023/06/28 07:38:59;;;;;;;6.28;2.22;;;;;;;21.04;57.05;100653.63;4939834;28;20497;-71
2023/06/28 07:41:28;;;;;;;7.68;3.50;;;;;;;21.09;57.06;100647.84;4961356;28;20065;-72
2023/06/28 07:43:55;;;;;;;5.47;2.38;;;;;;;20.94;55.88;100641.91;4966422;28;20051;-73
2023/06/28 07:46:22;;;;;;;7.38;2.28;;;;;;;20.55;55.48;100633.59;4962696;28;20106;-72
2023/06/28 07:48:50;;;;;;;6.05;2.50;;;;;;;20.59;57.33;100629.69;4968055;28;20058;-71
2023/06/28 07:51:18;;;;;;;5.75;2.15;;;;;;;20.95;55.29;100643.63;4957930;28;20535;-71
2023/06/28 07:53:45;;;;;;;7.90;2.45;;;;;;;21.17;54.71;100640.78;4938868;28;20060;-72
2023/06/28 07:56:13;;;;;;;5.90;1.92;;;;;;;21.45;53.07;100630.31;4941336;28;20418;-72
2023/06/28 07:58:40;;;;;;;5.57;2.15;;;;;;;21.58;54.63;100628.22;4957539;28;20043;-72
2023/06/28 08:01:07;;;;;;;6.70;2.38;;;;;;;21.70;53.36;100630.69;4944648;28;20604;-72
2023/06/28 08:03:35;;;;;;;4.65;2.42;;;;;;;21.73;51.87;100624.16;4925782;28;20051;-72
2023/06/28 08:06:02;;;;;;;6.28;2.22;;;;;;;21.85;51.29;100625.78;4954771;28;20047;-72
2023/06/28 08:08:36;;;;;;;6.47;2.13;;;;;;;22.11;50.26;100627.97;4938970;29;20094;-72
2023/06/28 08:11:03;;;;;;;5.55;2.15;;;;;;;22.30;49.44;100630.69;4942040;28;20058;-72
2023/06/28 08:13:30;;;;;;;5.50;2.35;;;;;;;22.51;49.57;100622.44;4942310;29;20581;-73
2023/06/28 08:15:58;;;;;;;9.13;2.60;;;;;;;22.52;49.59;100619.56;4957901;28;20421;-72
2023/06/28 08:18:27;;;;;;;5.35;2.55;;;;;;;22.43;49.90;100636.63;4940385;28;20528;-72
2023/06/28 08:20:54;;;;;;;4.90;2.28;;;;;;;22.31;48.86;100627.84;4959141;28;20144;-72
2023/06/28 08:23:21;;;;;;;7.85;2.05;;;;;;;22.43;49.17;100633.94;4944304;29;20047;-73
2023/06/28 08:25:50;;;;;;;6.90;2.22;;;;;;;22.75;49.42;100634.50;4956740;28;20046;-72
2023/06/28 08:28:17;;;;;;;4.43;2.22;;;;;;;22.93;47.24;100623.84;4939166;28;20129;-72
2023/06/28 08:30:44;;;;;;;7.32;2.00;;;;;;;22.92;47.87;100634.78;4957622;28;20066;-71
2023/06/28 08:33:12;;;;;;;4.65;2.00;;;;;;;22.89;47.86;100625.09;4958123;28;20050;-72
2023/06/28 08:35:39;;;;;;;6.85;2.35;;;;;;;22.58;48.38;100629.81;4956943;28;20047;-72
2023/06/28 08:38:06;;;;;;;6.68;2.38;;;;;;;22.37;51.25;100623.72;4936755;28;20050;-72
2023/06/28 08:40:38;;;;;;;7.72;2.22;;;;;;;22.03;53.06;100625.97;4946680;28;20080;-73
2023/06/28 08:43:07;;;;;;;10.85;2.50;;;;;;;21.69;55.88;100633.53;4956545;28;20050;-73
2023/06/28 08:45:33;;;;;;;8.02;2.22;;;;;;;21.47;56.73;100639.13;4937983;28;20073;-73
2023/06/28 08:48:07;;;;;;;4.55;2.20;;;;;;;21.29;56.73;100631.66;4925929;29;20047;-73
2023/06/28 08:50:57;;;;;;;5.32;2.33;;;;;;;21.31;55.61;100631.53;4944133;29;20047;-73
2023/06/28 08:53:28;;;;;;;5.60;2.42;;;;;;;21.16;57.06;100616.69;4930466;29;20070;-72
2023/06/28 08:56:07;;;;;;;9.18;2.83;;;;;;;21.29;57.86;100628.13;4955015;28;20054;-72
2023/06/28 08:58:34;;;;;;;6.55;2.65;;;;;;;21.19;56.42;100621.81;4943956;29;20070;-72
2023/06/28 09:01:02;;;;;;;9.73;2.80;;;;;;;21.10;55.75;100625.28;4947492;28;20051;-72
2023/06/28 09:03:30;;;;;;;8.52;3.20;;;;;;;20.92;57.19;100642.09;4954966;28;20038;-73
2023/06/28 09:06:01;;;;;;;8.00;2.47;;;;;;;20.90;56.51;100635.13;4959948;28;20043;-73
2023/06/28 09:08:29;;;;;;;9.32;2.55;;;;;;;21.05;57.28;100622.16;4939641;29;20139;-74
2023/06/28 09:10:58;;;;;;;7.78;2.55;;;;;;;21.21;56.50;100618.03;4938328;29;20051;-73
2023/06/28 09:13:26;;;;;;;7.20;2.70;;;;;;;21.26;56.91;100626.53;4936202;29;20064;-73
2023/06/28 09:15:54;;;;;;;8.02;2.60;;;;;;;21.23;57.23;100629.53;4942824;29;20197;-72
2023/06/28 09:18:23;;;;;;;5.60;2.63;;;;;;;21.15;56.36;100623.06;4938194;29;20552;-73
2023/06/28 09:20:52;;;;;;;5.65;2.08;;;;;;;21.13;56.37;100633.97;4944260;28;20075;-73
2023/06/28 09:23:25;;;;;;;4.70;2.88;;;;;;;21.03;55.27;100622.28;4954462;28;20074;-73
2023/06/28 09:25:54;;;;;;;7.25;2.38;;;;;;;21.00;55.52;100630.63;4932875;28;20082;-74
2023/06/28 09:28:33;;;;;;;5.70;2.42;;;;;;;21.04;55.88;100621.31;4958395;28;20055;-73
2023/06/28 09:31:01;;;;;;;5.97;2.60;;;;;;;21.41;54.64;100637.81;4942312;28;20541;-72
2023/06/28 09:33:27;;;;;;;4.60;2.05;;;;;;;21.65;53.04;100632.09;4953009;28;20126;-73
2023/06/28 09:35:56;;;;;;;10.30;2.60;;;;;;;21.77;52.06;100636.38;4955626;28;20047;-73
2023/06/28 09:38:24;;;;;;;5.90;2.05;;;;;;;21.67;51.03;100638.19;4941552;28;20074;-72
2023/06/28 09:40:58;;;;;;;5.97;1.90;;;;;;;21.51;51.28;100641.41;4944460;29;20142;-72
2023/06/28 09:43:31;;;;;;;5.20;1.98;;;;;;;21.55;52.03;100633.91;4959030;28;20055;-72
2023/06/28 09:46:10;;;;;;;6.43;2.35;;;;;;;21.31;52.66;100624.31;4938806;29;20045;-72
2023/06/28 09:48:37;;;;;;;8.70;2.28;;;;;;;21.30;53.05;100646.84;4958029;28;20609;-72
2023/06/28 09:51:09;;;;;;;8.55;1.88;;;;;;;21.30;52.76;100652.22;4960232;28;20185;-73
2023/06/28 09:53:56;;;;;;;5.93;1.80;;;;;;;21.23;53.20;100648.38;4950711;28;20099;-72
2023/06/28 09:56:38;;;;;;;8.35;2.50;;;;;;;21.21;53.34;100649.50;4954589;28;20051;-72
2023/06/28 09:59:07;;;;;;;3.72;1.77;;;;;;;21.26;53.41;100637.31;4951179;28;20046;-73
2023/06/28 10:01:42;;;;;;;6.68;2.22;;;;;;;21.47;52.91;100639.13;4951693;28;20045;-72
2023/06/28 10:04:12;;;;;;;4.70;2.03;;;;;;;21.52;52.04;100642.25;4940100;29;20063;-72
2023/06/28 10:06:41;;;;;;;;;;;;;;;21.48;51.85;100649.75;4930937;28;20152;-73
2023/06/28 10:09:08;;;;;;;4.18;1.92;;;;;;;21.34;52.80;100640.19;4945870;28;19974;-72
2023/06/28 10:11:39;;;;;;;5.85;1.90;;;;;;;21.40;53.16;100628.03;4951222;28;20047;-72
2023/06/28 10:14:13;;;;;;;11.95;2.30;;;;;;;21.83;50.85;100630.44;4938551;29;20094;-71
2023/06/28 10:16:41;;;;;;;6.30;1.98;;;;;;;22.29;49.92;100635.22;4941624;28;20040;-72
2023/06/28 10:19:11;;;;;;;5.35;1.95;;;;;;;22.46;50.18;100638.22;4945893;28;20069;-72
2023/06/28 10:21:39;;;;;;;5.22;1.90;;;;;;;22.37;49.27;100645.28;4939130;28;20142;-73
2023/06/28 10:24:08;;;;;;;6.43;2.33;;;;;;;22.36;49.95;100636.34;4937455;28;20396;-73
2023/06/28 10:26:36;;;;;;;8.38;2.10;;;;;;;22.75;48.56;100628.22;4961036;28;20051;-72
2023/06/28 10:29:07;;;;;;;6.05;2.22;;;;;;;23.17;46.27;100634.13;4959440;28;20110;-72
2023/06/28 10:31:36;;;;;;;5.10;1.65;;;;;;;23.34;46.00;100621.69;4962959;28;20045;-72
2023/06/28 10:34:04;;;;;;;4.18;2.25;;;;;;;23.63;46.33;100627.00;4948534;28;20051;-72
2023/06/28 10:36:31;;;;;;;9.55;2.60;;;;;;;23.74;44.76;100630.38;4951859;28;20051;-73
2023/06/28 10:38:59;;;;;;;5.50;2.00;;;;;;;23.60;44.33;100639.00;4951796;29;20150;-73
2023/06/28 10:41:30;;;;;;;7.47;2.78;;;;;;;23.20;45.75;100633.84;4931112;28;20043;-72
2023/06/28 10:44:05;;;;;;;7.07;2.20;;;;;;;22.98;47.19;100632.31;4963921;28;20070;-72
2023/06/28 10:46:36;;;;;;;8.85;2.40;;;;;;;22.80;47.24;100614.34;4925378;28;20071;-73
2023/06/28 10:49:03;;;;;;;6.13;2.40;;;;;;;22.91;48.10;100619.56;4940180;29;20039;-72
2023/06/28 10:51:31;;;;;;;4.47;2.03;;;;;;;23.22;47.39;100612.94;4957441;28;20499;-72
2023/06/28 10:54:13;;;;;;;6.45;2.38;;;;;;;23.58;45.72;100622.06;4938312;28;20505;-73
2023/06/28 10:56:47;;;;;;;10.82;2.50;;;;;;;23.33;45.45;100612.75;4941158;28;20046;-72
2023/06/28 10:59:13;;;;;;;47.42;7.95;;;;;;;23.41;46.25;100601.19;4938130;29;20458;-71
2023/06/28 11:01:49;;;;;;;49.72;6.43;;;;;;;23.63;46.00;100608.91;4957713;28;20101;-71
2023/06/28 11:04:25;;;;;;;16.23;3.22;;;;;;;23.97;44.82;100598.31;4940678;29;20103;-71
2023/06/28 11:07:18;;;;;;;9.63;3.33;;;;;;;24.38;44.75;100604.19;4941259;29;20111;-71
2023/06/28 11:10:17;;;;;;;25.15;5.03;;;;;;;24.21;43.85;100607.69;4927734;29;20043;-72
2023/06/28 11:12:48;;;;;;;5.47;2.47;;;;;;;23.86;44.96;100597.69;4955479;28;20047;-73
2023/06/28 11:15:14;;;;;;;;;;;;;;;24.08;44.81;100606.22;4959819;28;20394;-72
2023/06/28 11:17:41;;;;;;;7.47;2.42;;;;;;;24.21;44.54;100608.56;4961663;28;19970;-73
2023/06/28 11:20:16;;;;;;;7.07;2.60;;;;;;;24.41;43.46;100599.28;4934785;29;20047;-72
2023/06/28 11:22:53;;;;;;;6.22;2.10;;;;;;;24.66;43.67;100597.63;4937292;28;20083;-73
2023/06/28 11:25:27;;;;;;;6.93;2.63;;;;;;;24.44;44.03;100608.94;4924983;29;20486;-73
2023/06/28 11:27:57;;;;;;;6.95;2.42;;;;;;;24.00;44.78;100611.53;4950508;28;20150;-72
2023/06/28 11:30:47;;;;;;;7.50;2.72;;;;;;;23.69;45.16;100615.59;4956233;28;20058;-73